Terminal Aerodrome Forecast
Issued by NWS

Home | Current Version | Previous Version | Text Only | Print | Product List | Glossary On
Versions: 1 2 3 4 5 6 7 8 9 10 11 12 13 14 15 16
000
FTUS46 KMTR 210500
TAFOAK
TAF
KOAK 210528Z 2106/2212 30005KT P6SM BKN012
     FM211900 29012KT P6SM SCT015
     FM212100 29015KT P6SM FEW015
     FM220300 29008KT P6SM SCT015
     FM220500 30005KT P6SM BKN012=

USA.gov is the U.S. government's official web portal to all federal, state and local government web resources and services.